Hancock, MI (49930)

8:46 PM EDT on March 29, 2015 (GMT -0400)
Hancock: Sylvan Estates | | Change Station
CLOSE
Current Station
Personal Weather Station
Location: Hancock, MI
Elevation: 917 ft
Nearby Weather Stations
Active Advisory: Special Statement

Elev 917 ft 47.14 °N, 88.60 °W | Updated 6 minutes ago

Rain
Rain
35.7 °F
Feels Like 31 °F
N
5.0
Wind Variable Wind from WNW
Gusts 16.0 mph

Today
High -- | Low -- °F
--% Chance of Precip.
Yesterday
High -- | Low -- °F
Precip. -- in
7:39 AM 8:19 PM
Waxing Gibbous, 75% visible
Pressure 29.57 in
Visibility 10.0 miles
Clouds Few 2300 ft
Scattered Clouds 3000 ft
Overcast 5500 ft
Windchill 31 °F
Dew Point 34 °F
Humidity 93%
Rainfall 0.14 in
Snow Depth Not available.
UV 0 out of 12
Pollen .30 out of 12
Air Quality Not available.
Flu Activity Not available.
SPECI KCMX 300032Z AUTO 30018KT 10SM FEW023 SCT030 OVC055 02/00 A2957 RMK AO2 PK WND 30027/2358 UPB10E12 P0000 T00220000

More Conditions Fewer Conditions

Pressure 29.57 in
Visibility 10.0 miles
Clouds Few 2300 ft
Scattered Clouds 3000 ft
Overcast 5500 ft
Windchill 31 °F
Dew Point 34 °F
Humidity 93%
Rainfall 0.14 in
Snow Depth Not available.
UV 0 out of 12
Pollen .30 out of 12
Air Quality Not available.
Flu Activity Not available.
SPECI KCMX 300032Z AUTO 30018KT 10SM FEW023 SCT030 OVC055 02/00 A2957 RMK AO2 PK WND 30027/2358 UPB10E12 P0000 T00220000

More Conditions Fewer Conditions

10-Day Weather Forecast

Almanac

Astronomy

Mar. 29, 2015 Rise Set
Actual Time
Civil Twilight
Nautical Twilight
Astronomical Twilight
Moon
Length of Visible Light
Length of Day
Tomorrow will be .
, % of the Moon is Illuminated

Today's Extremes

State Highs State Lows

Community

WunderPhotos

Upload Photos

1,809,389 photos uploaded!

WunderBlogs® & News

Nearby

Air Quality

  Air Quality AQ Index Pollutant
Not available.

Snow Depth

Station Depth Elevation

Earthquake Activity

City Distance Mag. Time & Date
Minimum magnitude displayed is 2.5.

Coastal Water Temperatures

Place Temperature

Stations

Nearby Weather Stations

Station Location Temp. Windchill Dew Point Humidity Wind Precip. Elev Updated Type
                   
Special Statement
Statement as of 5:16 PM EDT on March 29, 2015

... Gusty northwest winds this evening...

Expect west to northwest wind gusts as high as 35 to 45 mph this
evening. The strongest winds will occur over the west facing higher
terrain near Lake Superior. These gusty winds will diminish to under
30 mph after midnight.


Kc